Egralharve, Iowa
Current Conditions -  °F | °C
As of 7:33 AM on Saturday 01 Nov 2014 (Local Time) from KMJQ Reporting Station
Clear Clear  
Wind Chill: 17°   Ceiling: Unl
Heat Index: 28°   Visibility: 10mi
Dew Point: 19°   Wind: 14mph
Humidity: 69%   Direction: 170°S
Pressure: 30.37"   Gusts: 17mph
Location:  43.4265°N, 95.1547°W
Report Text: KMJQ 011233Z AUTO 17012G15KT 10SM CLR M02/M07 A3037 RMK AO2
Loading
Personal Weather Stations






























Interactive Weather Map
Tropical Storm Tracking
New forecast layout! Learn more

10-Day Weather Forecast

Advertisements
Track Severe Weather on mobile